sensor_id;sensor_type;location;lat;lon;timestamp;temperature;humidity
12843;DHT22;35724;49.324;-123.118;2022-10-16T00:01:30;33.70;43.60
12843;DHT22;35724;49.324;-123.118;2022-10-16T00:11:47;33.70;44.10
12843;DHT22;35724;49.324;-123.118;2022-10-16T00:22:06;33.20;44.30
12843;DHT22;35724;49.324;-123.118;2022-10-16T00:32:28;32.50;44.90
12843;DHT22;35724;49.324;-123.118;2022-10-16T00:42:43;31.70;46.10
12843;DHT22;35724;49.324;-123.118;2022-10-16T00:52:59;30.50;47.70
12843;DHT22;35724;49.324;-123.118;2022-10-16T01:03:23;28.70;50.60
12843;DHT22;35724;49.324;-123.118;2022-10-16T01:13:35;26.40;54.90
12843;DHT22;35724;49.324;-123.118;2022-10-16T01:23:51;25.40;56.60
12843;DHT22;35724;49.324;-123.118;2022-10-16T01:34:08;24.80;58.00
12843;DHT22;35724;49.324;-123.118;2022-10-16T01:44:25;24.50;58.90
12843;DHT22;35724;49.324;-123.118;2022-10-16T01:54:37;24.20;59.90
12843;DHT22;35724;49.324;-123.118;2022-10-16T02:05:15;24.00;60.80
12843;DHT22;35724;49.324;-123.118;2022-10-16T02:15:48;23.90;61.20
12843;DHT22;35724;49.324;-123.118;2022-10-16T02:25:59;24.00;61.30
12843;DHT22;35724;49.324;-123.118;2022-10-16T02:36:15;24.00;62.00
12843;DHT22;35724;49.324;-123.118;2022-10-16T02:46:26;24.00;62.40
12843;DHT22;35724;49.324;-123.118;2022-10-16T02:56:39;23.90;62.50
12843;DHT22;35724;49.324;-123.118;2022-10-16T03:06:47;23.90;62.70
12843;DHT22;35724;49.324;-123.118;2022-10-16T03:16:56;24.00;62.50
12843;DHT22;35724;49.324;-123.118;2022-10-16T03:27:03;24.00;62.00
12843;DHT22;35724;49.324;-123.118;2022-10-16T03:37:15;23.90;61.00
12843;DHT22;35724;49.324;-123.118;2022-10-16T03:47:24;23.80;61.00
12843;DHT22;35724;49.324;-123.118;2022-10-16T03:57:33;23.80;60.70
12843;DHT22;35724;49.324;-123.118;2022-10-16T04:08:07;23.70;59.70
12843;DHT22;35724;49.324;-123.118;2022-10-16T04:30:06;23.80;59.20
12843;DHT22;35724;49.324;-123.118;2022-10-16T04:40:19;23.70;58.70
12843;DHT22;35724;49.324;-123.118;2022-10-16T04:50:28;23.70;58.70
12843;DHT22;35724;49.324;-123.118;2022-10-16T05:00:41;23.70;57.80
12843;DHT22;35724;49.324;-123.118;2022-10-16T05:21:39;23.80;57.40
12843;DHT22;35724;49.324;-123.118;2022-10-16T05:31:50;23.90;59.50
12843;DHT22;35724;49.324;-123.118;2022-10-16T05:41:58;23.90;58.60
12843;DHT22;35724;49.324;-123.118;2022-10-16T05:52:07;23.80;58.40
12843;DHT22;35724;49.324;-123.118;2022-10-16T06:02:18;23.80;57.70
12843;DHT22;35724;49.324;-123.118;2022-10-16T06:12:28;23.80;57.30
12843;DHT22;35724;49.324;-123.118;2022-10-16T06:22:35;23.80;56.50
12843;DHT22;35724;49.324;-123.118;2022-10-16T06:32:44;23.90;56.10
12843;DHT22;35724;49.324;-123.118;2022-10-16T06:42:58;23.80;55.70
12843;DHT22;35724;49.324;-123.118;2022-10-16T07:05:30;23.60;54.90
12843;DHT22;35724;49.324;-123.118;2022-10-16T07:15:45;23.70;55.20
12843;DHT22;35724;49.324;-123.118;2022-10-16T07:26:09;23.70;55.60
12843;DHT22;35724;49.324;-123.118;2022-10-16T07:36:25;23.70;55.80
12843;DHT22;35724;49.324;-123.118;2022-10-16T07:46:43;23.70;56.10
12843;DHT22;35724;49.324;-123.118;2022-10-16T07:56:59;23.70;56.80
12843;DHT22;35724;49.324;-123.118;2022-10-16T08:19:40;23.70;56.40
12843;DHT22;35724;49.324;-123.118;2022-10-16T08:30:22;23.60;56.20
12843;DHT22;35724;49.324;-123.118;2022-10-16T08:54:06;23.70;55.70
12843;DHT22;35724;49.324;-123.118;2022-10-16T09:05:45;23.60;55.40
12843;DHT22;35724;49.324;-123.118;2022-10-16T09:16:16;23.60;55.40
12843;DHT22;35724;49.324;-123.118;2022-10-16T09:26:27;23.60;55.40
12843;DHT22;35724;49.324;-123.118;2022-10-16T09:36:48;23.60;55.40
12843;DHT22;35724;49.324;-123.118;2022-10-16T09:58:31;23.60;55.20
12843;DHT22;35724;49.324;-123.118;2022-10-16T10:09:13;23.60;55.10
12843;DHT22;35724;49.324;-123.118;2022-10-16T10:19:24;23.60;55.20
12843;DHT22;35724;49.324;-123.118;2022-10-16T10:29:44;23.60;55.10
12843;DHT22;35724;49.324;-123.118;2022-10-16T10:40:21;23.60;54.90
12843;DHT22;35724;49.324;-123.118;2022-10-16T10:51:15;23.60;54.70
12843;DHT22;35724;49.324;-123.118;2022-10-16T11:01:40;23.60;54.60
12843;DHT22;35724;49.324;-123.118;2022-10-16T11:11:59;23.60;54.60
12843;DHT22;35724;49.324;-123.118;2022-10-16T11:22:36;23.60;54.40
12843;DHT22;35724;49.324;-123.118;2022-10-16T11:45:08;23.60;54.20
12843;DHT22;35724;49.324;-123.118;2022-10-16T11:55:58;23.60;54.30
12843;DHT22;35724;49.324;-123.118;2022-10-16T13:20:12;23.50;53.90
12843;DHT22;35724;49.324;-123.118;2022-10-16T13:30:38;23.50;53.70
12843;DHT22;35724;49.324;-123.118;2022-10-16T13:40:55;23.50;53.60
12843;DHT22;35724;49.324;-123.118;2022-10-16T13:51:16;23.40;53.50
12843;DHT22;35724;49.324;-123.118;2022-10-16T14:01:50;23.40;53.40
12843;DHT22;35724;49.324;-123.118;2022-10-16T15:02:35;23.40;53.10
12843;DHT22;35724;49.324;-123.118;2022-10-16T15:13:36;23.50;53.20
12843;DHT22;35724;49.324;-123.118;2022-10-16T15:37:08;23.50;53.30
12843;DHT22;35724;49.324;-123.118;2022-10-16T15:47:22;23.50;53.10
12843;DHT22;35724;49.324;-123.118;2022-10-16T15:57:31;23.60;53.00
12843;DHT22;35724;49.324;-123.118;2022-10-16T16:07:40;23.70;52.50
12843;DHT22;35724;49.324;-123.118;2022-10-16T16:17:49;23.80;52.30
12843;DHT22;35724;49.324;-123.118;2022-10-16T16:27:56;23.90;52.50
12843;DHT22;35724;49.324;-123.118;2022-10-16T16:38:05;24.00;53.10
12843;DHT22;35724;49.324;-123.118;2022-10-16T16:48:12;24.00;53.00
12843;DHT22;35724;49.324;-123.118;2022-10-16T16:58:21;24.10;52.70
12843;DHT22;35724;49.324;-123.118;2022-10-16T17:08:30;24.20;53.20
12843;DHT22;35724;49.324;-123.118;2022-10-16T17:18:39;24.20;52.60
12843;DHT22;35724;49.324;-123.118;2022-10-16T17:28:51;23.90;52.30
12843;DHT22;35724;49.324;-123.118;2022-10-16T17:39:05;23.80;52.30
12843;DHT22;35724;49.324;-123.118;2022-10-16T17:49:13;23.70;51.80
12843;DHT22;35724;49.324;-123.118;2022-10-16T17:59:22;23.50;51.60
12843;DHT22;35724;49.324;-123.118;2022-10-16T18:09:30;23.50;51.50
12843;DHT22;35724;49.324;-123.118;2022-10-16T18:19:39;23.60;51.90
12843;DHT22;35724;49.324;-123.118;2022-10-16T18:29:46;23.60;52.10
12843;DHT22;35724;49.324;-123.118;2022-10-16T18:39:55;23.60;52.20
12843;DHT22;35724;49.324;-123.118;2022-10-16T18:50:06;23.30;51.60
12843;DHT22;35724;49.324;-123.118;2022-10-16T19:00:16;23.30;51.10
12843;DHT22;35724;49.324;-123.118;2022-10-16T19:10:24;23.30;49.60
12843;DHT22;35724;49.324;-123.118;2022-10-16T19:20:33;23.30;49.40
12843;DHT22;35724;49.324;-123.118;2022-10-16T19:30:41;23.60;49.40
12843;DHT22;35724;49.324;-123.118;2022-10-16T19:40:51;23.60;48.10
12843;DHT22;35724;49.324;-123.118;2022-10-16T19:50:58;23.10;49.00
12843;DHT22;35724;49.324;-123.118;2022-10-16T20:01:08;22.90;51.50
12843;DHT22;35724;49.324;-123.118;2022-10-16T20:11:17;22.90;53.40
12843;DHT22;35724;49.324;-123.118;2022-10-16T20:21:28;22.90;55.50
12843;DHT22;35724;49.324;-123.118;2022-10-16T20:31:36;23.00;56.10
12843;DHT22;35724;49.324;-123.118;2022-10-16T20:42:10;23.00;56.30
12843;DHT22;35724;49.324;-123.118;2022-10-16T20:52:17;22.80;58.30
12843;DHT22;35724;49.324;-123.118;2022-10-16T21:02:26;22.60;58.20
12843;DHT22;35724;49.324;-123.118;2022-10-16T21:12:33;22.60;57.60
12843;DHT22;35724;49.324;-123.118;2022-10-16T21:22:43;22.70;58.20
12843;DHT22;35724;49.324;-123.118;2022-10-16T21:32:50;22.60;56.80
12843;DHT22;35724;49.324;-123.118;2022-10-16T21:42:59;22.60;53.90
12843;DHT22;35724;49.324;-123.118;2022-10-16T21:53:08;22.60;52.20
12843;DHT22;35724;49.324;-123.118;2022-10-16T22:03:17;22.60;50.90
12843;DHT22;35724;49.324;-123.118;2022-10-16T22:13:24;22.70;50.50
12843;DHT22;35724;49.324;-123.118;2022-10-16T22:23:33;22.50;51.60
12843;DHT22;35724;49.324;-123.118;2022-10-16T22:33:41;22.40;50.50
12843;DHT22;35724;49.324;-123.118;2022-10-16T22:43:51;22.70;48.90
12843;DHT22;35724;49.324;-123.118;2022-10-16T22:53:58;22.70;48.60
12843;DHT22;35724;49.324;-123.118;2022-10-16T23:04:07;22.80;47.90
12843;DHT22;35724;49.324;-123.118;2022-10-16T23:14:19;23.00;50.00
12843;DHT22;35724;49.324;-123.118;2022-10-16T23:24:31;24.50;52.80
12843;DHT22;35724;49.324;-123.118;2022-10-16T23:34:40;25.50;54.00
12843;DHT22;35724;49.324;-123.118;2022-10-16T23:44:48;26.00;59.80
12843;DHT22;35724;49.324;-123.118;2022-10-16T23:54:56;26.30;62.10
